sensor_id;sensor_type;location;lat;lon;timestamp;temperature;humidity
67750;DHT22;54550;48.838;8.828;2023-08-21T00:01:18;20.80;99.90
67750;DHT22;54550;48.838;8.828;2023-08-21T00:03:44;20.70;99.90
67750;DHT22;54550;48.838;8.828;2023-08-21T00:06:10;20.70;99.90
67750;DHT22;54550;48.838;8.828;2023-08-21T00:08:35;20.60;99.90
67750;DHT22;54550;48.838;8.828;2023-08-21T00:11:01;20.70;99.90
67750;DHT22;54550;48.838;8.828;2023-08-21T00:13:26;20.60;99.90
67750;DHT22;54550;48.838;8.828;2023-08-21T00:15:52;20.60;99.90
67750;DHT22;54550;48.838;8.828;2023-08-21T00:18:18;20.60;99.90
67750;DHT22;54550;48.838;8.828;2023-08-21T00:20:43;20.50;99.90
67750;DHT22;54550;48.838;8.828;2023-08-21T00:23:09;20.50;99.90
67750;DHT22;54550;48.838;8.828;2023-08-21T00:25:35;20.50;99.90
67750;DHT22;54550;48.838;8.828;2023-08-21T00:28:00;20.50;99.90
67750;DHT22;54550;48.838;8.828;2023-08-21T00:30:26;20.40;99.90
67750;DHT22;54550;48.838;8.828;2023-08-21T00:32:55;20.40;99.90
67750;DHT22;54550;48.838;8.828;2023-08-21T00:35:20;20.40;99.90
67750;DHT22;54550;48.838;8.828;2023-08-21T00:37:46;20.40;99.90
67750;DHT22;54550;48.838;8.828;2023-08-21T00:40:12;20.40;99.90
67750;DHT22;54550;48.838;8.828;2023-08-21T00:42:38;20.30;99.90
67750;DHT22;54550;48.838;8.828;2023-08-21T00:45:04;20.30;99.90
67750;DHT22;54550;48.838;8.828;2023-08-21T00:47:29;20.30;99.90
67750;DHT22;54550;48.838;8.828;2023-08-21T00:49:55;20.40;99.90
67750;DHT22;54550;48.838;8.828;2023-08-21T00:52:21;20.30;99.90
67750;DHT22;54550;48.838;8.828;2023-08-21T00:54:47;20.40;99.90
67750;DHT22;54550;48.838;8.828;2023-08-21T00:57:14;20.30;99.90
67750;DHT22;54550;48.838;8.828;2023-08-21T00:59:40;20.20;99.90
67750;DHT22;54550;48.838;8.828;2023-08-21T01:02:06;20.20;99.90
67750;DHT22;54550;48.838;8.828;2023-08-21T01:04:31;20.20;99.90
67750;DHT22;54550;48.838;8.828;2023-08-21T01:06:57;20.10;99.90
67750;DHT22;54550;48.838;8.828;2023-08-21T01:09:29;20.10;99.90
67750;DHT22;54550;48.838;8.828;2023-08-21T01:12:09;20.10;99.90
67750;DHT22;54550;48.838;8.828;2023-08-21T01:15:04;20.00;99.90
67750;DHT22;54550;48.838;8.828;2023-08-21T01:17:36;20.00;99.90
67750;DHT22;54550;48.838;8.828;2023-08-21T01:20:03;20.00;99.90
67750;DHT22;54550;48.838;8.828;2023-08-21T01:22:36;20.00;99.90
67750;DHT22;54550;48.838;8.828;2023-08-21T01:25:06;19.90;99.90
67750;DHT22;54550;48.838;8.828;2023-08-21T01:27:32;19.90;99.90
67750;DHT22;54550;48.838;8.828;2023-08-21T01:29:58;19.90;99.90
67750;DHT22;54550;48.838;8.828;2023-08-21T01:35:17;19.90;99.90
67750;DHT22;54550;48.838;8.828;2023-08-21T01:37:43;19.90;99.90
67750;DHT22;54550;48.838;8.828;2023-08-21T01:40:09;19.70;99.90
67750;DHT22;54550;48.838;8.828;2023-08-21T01:42:35;19.70;99.90
67750;DHT22;54550;48.838;8.828;2023-08-21T01:45:01;19.60;99.90
67750;DHT22;54550;48.838;8.828;2023-08-21T01:47:26;19.60;99.90
67750;DHT22;54550;48.838;8.828;2023-08-21T01:49:52;19.50;99.90
67750;DHT22;54550;48.838;8.828;2023-08-21T01:52:18;19.50;99.90
67750;DHT22;54550;48.838;8.828;2023-08-21T01:54:44;19.40;99.90
67750;DHT22;54550;48.838;8.828;2023-08-21T01:57:09;19.40;99.90
67750;DHT22;54550;48.838;8.828;2023-08-21T01:59:35;19.40;99.90
67750;DHT22;54550;48.838;8.828;2023-08-21T02:02:00;19.40;99.90
67750;DHT22;54550;48.838;8.828;2023-08-21T02:04:26;19.40;99.90
67750;DHT22;54550;48.838;8.828;2023-08-21T02:06:52;19.30;99.90
67750;DHT22;54550;48.838;8.828;2023-08-21T02:09:17;19.30;99.90
67750;DHT22;54550;48.838;8.828;2023-08-21T02:11:43;19.30;99.90
67750;DHT22;54550;48.838;8.828;2023-08-21T02:14:08;19.30;99.90
67750;DHT22;54550;48.838;8.828;2023-08-21T02:16:34;19.30;99.90
67750;DHT22;54550;48.838;8.828;2023-08-21T02:18:59;19.30;99.90
67750;DHT22;54550;48.838;8.828;2023-08-21T02:21:25;19.40;99.90
67750;DHT22;54550;48.838;8.828;2023-08-21T02:23:50;19.30;99.90
67750;DHT22;54550;48.838;8.828;2023-08-21T02:26:16;19.30;99.90
67750;DHT22;54550;48.838;8.828;2023-08-21T02:28:42;19.20;99.90
67750;DHT22;54550;48.838;8.828;2023-08-21T02:31:09;19.20;99.90
67750;DHT22;54550;48.838;8.828;2023-08-21T02:33:35;19.20;99.90
67750;DHT22;54550;48.838;8.828;2023-08-21T02:36:01;19.10;99.90
67750;DHT22;54550;48.838;8.828;2023-08-21T02:38:28;19.10;99.90
67750;DHT22;54550;48.838;8.828;2023-08-21T02:40:53;19.10;99.90
67750;DHT22;54550;48.838;8.828;2023-08-21T02:43:19;19.10;99.90
67750;DHT22;54550;48.838;8.828;2023-08-21T02:45:45;19.10;99.90
67750;DHT22;54550;48.838;8.828;2023-08-21T02:48:10;19.10;99.90
67750;DHT22;54550;48.838;8.828;2023-08-21T02:50:36;19.00;99.90
67750;DHT22;54550;48.838;8.828;2023-08-21T02:53:02;19.00;99.90
67750;DHT22;54550;48.838;8.828;2023-08-21T02:55:27;19.10;99.90
67750;DHT22;54550;48.838;8.828;2023-08-21T02:57:53;19.10;99.90
67750;DHT22;54550;48.838;8.828;2023-08-21T03:00:19;19.10;99.90
67750;DHT22;54550;48.838;8.828;2023-08-21T03:02:44;19.00;99.90
67750;DHT22;54550;48.838;8.828;2023-08-21T03:05:10;19.00;99.90
67750;DHT22;54550;48.838;8.828;2023-08-21T03:07:36;18.90;99.90
67750;DHT22;54550;48.838;8.828;2023-08-21T03:10:02;18.90;99.90
67750;DHT22;54550;48.838;8.828;2023-08-21T03:12:28;18.90;99.90
67750;DHT22;54550;48.838;8.828;2023-08-21T03:14:53;18.90;99.90
67750;DHT22;54550;48.838;8.828;2023-08-21T03:17:19;18.90;99.90
67750;DHT22;54550;48.838;8.828;2023-08-21T03:19:44;18.90;99.90
67750;DHT22;54550;48.838;8.828;2023-08-21T03:22:10;18.90;99.90
67750;DHT22;54550;48.838;8.828;2023-08-21T03:24:36;18.90;99.90
67750;DHT22;54550;48.838;8.828;2023-08-21T03:27:03;18.90;99.90
67750;DHT22;54550;48.838;8.828;2023-08-21T03:29:28;18.90;99.90
67750;DHT22;54550;48.838;8.828;2023-08-21T03:31:54;18.90;99.90
67750;DHT22;54550;48.838;8.828;2023-08-21T03:34:20;18.80;99.90
67750;DHT22;54550;48.838;8.828;2023-08-21T03:36:45;18.80;99.90
67750;DHT22;54550;48.838;8.828;2023-08-21T03:39:11;18.80;99.90
67750;DHT22;54550;48.838;8.828;2023-08-21T03:41:37;18.80;99.90
67750;DHT22;54550;48.838;8.828;2023-08-21T03:44:02;18.90;99.90
67750;DHT22;54550;48.838;8.828;2023-08-21T03:46:28;18.90;99.90
67750;DHT22;54550;48.838;8.828;2023-08-21T03:48:53;18.90;99.90
67750;DHT22;54550;48.838;8.828;2023-08-21T03:51:19;18.90;99.90
67750;DHT22;54550;48.838;8.828;2023-08-21T03:53:44;18.80;99.90
67750;DHT22;54550;48.838;8.828;2023-08-21T03:56:10;18.80;99.90
67750;DHT22;54550;48.838;8.828;2023-08-21T03:58:35;18.80;99.90
67750;DHT22;54550;48.838;8.828;2023-08-21T04:01:01;18.80;99.90
67750;DHT22;54550;48.838;8.828;2023-08-21T04:03:26;18.70;99.90
67750;DHT22;54550;48.838;8.828;2023-08-21T04:05:55;18.80;99.90
67750;DHT22;54550;48.838;8.828;2023-08-21T04:08:22;18.90;99.90
67750;DHT22;54550;48.838;8.828;2023-08-21T04:10:48;18.90;99.90
67750;DHT22;54550;48.838;8.828;2023-08-21T04:13:13;19.00;99.90
67750;DHT22;54550;48.838;8.828;2023-08-21T04:15:39;19.10;99.90
67750;DHT22;54550;48.838;8.828;2023-08-21T04:18:09;19.10;99.90
67750;DHT22;54550;48.838;8.828;2023-08-21T04:20:35;19.20;99.90
67750;DHT22;54550;48.838;8.828;2023-08-21T04:23:00;19.30;99.90
67750;DHT22;54550;48.838;8.828;2023-08-21T04:25:26;19.30;99.90
67750;DHT22;54550;48.838;8.828;2023-08-21T04:27:51;19.30;99.90
67750;DHT22;54550;48.838;8.828;2023-08-21T04:30:17;19.20;99.90
67750;DHT22;54550;48.838;8.828;2023-08-21T04:32:42;19.20;99.90
67750;DHT22;54550;48.838;8.828;2023-08-21T04:35:08;19.10;99.90
67750;DHT22;54550;48.838;8.828;2023-08-21T04:37:34;19.10;99.90
67750;DHT22;54550;48.838;8.828;2023-08-21T04:40:00;19.10;99.90
67750;DHT22;54550;48.838;8.828;2023-08-21T04:42:25;19.20;99.90
67750;DHT22;54550;48.838;8.828;2023-08-21T04:44:51;19.20;99.90
67750;DHT22;54550;48.838;8.828;2023-08-21T04:47:22;19.20;99.90
67750;DHT22;54550;48.838;8.828;2023-08-21T04:49:49;19.20;99.90
67750;DHT22;54550;48.838;8.828;2023-08-21T04:52:14;19.20;99.90
67750;DHT22;54550;48.838;8.828;2023-08-21T04:54:40;19.30;99.90
67750;DHT22;54550;48.838;8.828;2023-08-21T04:57:06;19.30;99.90
67750;DHT22;54550;48.838;8.828;2023-08-21T04:59:31;19.40;99.90
67750;DHT22;54550;48.838;8.828;2023-08-21T05:01:57;19.50;99.90
67750;DHT22;54550;48.838;8.828;2023-08-21T05:04:22;19.70;99.90
67750;DHT22;54550;48.838;8.828;2023-08-21T05:06:48;19.70;99.90
67750;DHT22;54550;48.838;8.828;2023-08-21T05:09:13;19.80;99.90
67750;DHT22;54550;48.838;8.828;2023-08-21T05:11:39;19.90;99.90
67750;DHT22;54550;48.838;8.828;2023-08-21T05:14:04;19.90;99.90
67750;DHT22;54550;48.838;8.828;2023-08-21T05:16:30;20.00;99.90
67750;DHT22;54550;48.838;8.828;2023-08-21T05:18:55;20.10;99.90
67750;DHT22;54550;48.838;8.828;2023-08-21T05:21:21;20.10;99.90
67750;DHT22;54550;48.838;8.828;2023-08-21T05:23:46;20.20;99.90
67750;DHT22;54550;48.838;8.828;2023-08-21T05:26:12;20.30;99.90
67750;DHT22;54550;48.838;8.828;2023-08-21T05:28:38;20.60;99.90
67750;DHT22;54550;48.838;8.828;2023-08-21T05:31:03;21.10;99.90
67750;DHT22;54550;48.838;8.828;2023-08-21T05:33:29;21.80;99.90
67750;DHT22;54550;48.838;8.828;2023-08-21T05:35:56;22.40;99.90
67750;DHT22;54550;48.838;8.828;2023-08-21T05:38:22;23.00;99.90
67750;DHT22;54550;48.838;8.828;2023-08-21T05:40:48;23.40;99.90
67750;DHT22;54550;48.838;8.828;2023-08-21T05:43:15;23.90;99.90
67750;DHT22;54550;48.838;8.828;2023-08-21T05:45:41;24.30;99.90
67750;DHT22;54550;48.838;8.828;2023-08-21T05:48:06;24.60;99.90
67750;DHT22;54550;48.838;8.828;2023-08-21T05:50:32;24.90;99.90
67750;DHT22;54550;48.838;8.828;2023-08-21T05:52:58;25.20;99.90
67750;DHT22;54550;48.838;8.828;2023-08-21T05:55:23;25.80;99.90
67750;DHT22;54550;48.838;8.828;2023-08-21T05:57:49;26.30;99.90
67750;DHT22;54550;48.838;8.828;2023-08-21T06:00:15;26.40;99.90
67750;DHT22;54550;48.838;8.828;2023-08-21T06:02:41;26.40;99.90
67750;DHT22;54550;48.838;8.828;2023-08-21T06:05:10;26.90;99.90
67750;DHT22;54550;48.838;8.828;2023-08-21T06:07:35;27.40;99.90
67750;DHT22;54550;48.838;8.828;2023-08-21T06:10:01;27.80;99.90
67750;DHT22;54550;48.838;8.828;2023-08-21T06:12:27;27.90;99.90
67750;DHT22;54550;48.838;8.828;2023-08-21T06:14:52;27.80;99.90
67750;DHT22;54550;48.838;8.828;2023-08-21T06:17:18;28.20;99.90
67750;DHT22;54550;48.838;8.828;2023-08-21T06:19:43;28.00;99.90
67750;DHT22;54550;48.838;8.828;2023-08-21T06:22:09;28.60;99.90
67750;DHT22;54550;48.838;8.828;2023-08-21T06:24:35;28.70;99.90
67750;DHT22;54550;48.838;8.828;2023-08-21T06:27:00;28.60;99.90
67750;DHT22;54550;48.838;8.828;2023-08-21T06:29:26;28.60;99.90
67750;DHT22;54550;48.838;8.828;2023-08-21T06:31:51;28.70;99.90
67750;DHT22;54550;48.838;8.828;2023-08-21T06:34:17;28.80;99.90
67750;DHT22;54550;48.838;8.828;2023-08-21T06:36:42;29.00;99.90
67750;DHT22;54550;48.838;8.828;2023-08-21T06:39:08;29.10;99.90
67750;DHT22;54550;48.838;8.828;2023-08-21T06:41:34;29.60;99.90
67750;DHT22;54550;48.838;8.828;2023-08-21T06:44:00;29.40;99.90
67750;DHT22;54550;48.838;8.828;2023-08-21T06:46:25;29.80;99.90
67750;DHT22;54550;48.838;8.828;2023-08-21T06:48:51;29.70;99.90
67750;DHT22;54550;48.838;8.828;2023-08-21T06:51:16;30.00;99.90
67750;DHT22;54550;48.838;8.828;2023-08-21T06:53:42;30.20;99.90
67750;DHT22;54550;48.838;8.828;2023-08-21T06:56:08;30.30;99.90
67750;DHT22;54550;48.838;8.828;2023-08-21T06:58:33;30.60;99.90
67750;DHT22;54550;48.838;8.828;2023-08-21T07:01:00;31.00;99.90
67750;DHT22;54550;48.838;8.828;2023-08-21T07:03:26;30.80;99.90
67750;DHT22;54550;48.838;8.828;2023-08-21T07:05:59;31.00;99.90
67750;DHT22;54550;48.838;8.828;2023-08-21T07:08:26;31.00;99.90
67750;DHT22;54550;48.838;8.828;2023-08-21T07:10:52;31.00;99.90
67750;DHT22;54550;48.838;8.828;2023-08-21T07:13:19;31.00;99.90
67750;DHT22;54550;48.838;8.828;2023-08-21T07:15:45;30.90;99.90
67750;DHT22;54550;48.838;8.828;2023-08-21T07:18:10;31.50;99.90
67750;DHT22;54550;48.838;8.828;2023-08-21T07:20:36;31.40;99.90
67750;DHT22;54550;48.838;8.828;2023-08-21T07:23:02;31.70;99.90
67750;DHT22;54550;48.838;8.828;2023-08-21T07:25:27;32.10;99.90
67750;DHT22;54550;48.838;8.828;2023-08-21T07:27:56;32.30;99.90
67750;DHT22;54550;48.838;8.828;2023-08-21T07:30:22;32.70;99.50
67750;DHT22;54550;48.838;8.828;2023-08-21T07:32:48;33.40;98.30
67750;DHT22;54550;48.838;8.828;2023-08-21T07:35:14;33.60;97.70
67750;DHT22;54550;48.838;8.828;2023-08-21T07:37:43;33.80;97.40
67750;DHT22;54550;48.838;8.828;2023-08-21T07:40:09;33.50;97.00
67750;DHT22;54550;48.838;8.828;2023-08-21T07:42:35;32.90;97.70
67750;DHT22;54550;48.838;8.828;2023-08-21T07:45:00;32.30;98.20
67750;DHT22;54550;48.838;8.828;2023-08-21T07:47:29;31.60;99.10
67750;DHT22;54550;48.838;8.828;2023-08-21T07:49:56;31.30;99.40
67750;DHT22;54550;48.838;8.828;2023-08-21T07:52:23;31.90;98.90
67750;DHT22;54550;48.838;8.828;2023-08-21T07:54:53;32.40;98.10
67750;DHT22;54550;48.838;8.828;2023-08-21T07:57:18;32.70;98.00
67750;DHT22;54550;48.838;8.828;2023-08-21T07:59:44;32.90;97.40
67750;DHT22;54550;48.838;8.828;2023-08-21T08:02:09;33.20;97.70
67750;DHT22;54550;48.838;8.828;2023-08-21T08:04:38;32.80;96.90
67750;DHT22;54550;48.838;8.828;2023-08-21T08:07:03;32.00;98.00
67750;DHT22;54550;48.838;8.828;2023-08-21T08:09:29;31.50;99.00
67750;DHT22;54550;48.838;8.828;2023-08-21T08:11:55;31.30;99.80
67750;DHT22;54550;48.838;8.828;2023-08-21T08:14:20;31.70;98.80
67750;DHT22;54550;48.838;8.828;2023-08-21T08:16:46;32.00;98.90
67750;DHT22;54550;48.838;8.828;2023-08-21T08:19:11;32.50;97.80
67750;DHT22;54550;48.838;8.828;2023-08-21T08:21:37;32.60;98.20
67750;DHT22;54550;48.838;8.828;2023-08-21T08:24:03;33.20;97.60
67750;DHT22;54550;48.838;8.828;2023-08-21T08:26:29;33.40;96.70
67750;DHT22;54550;48.838;8.828;2023-08-21T08:28:54;33.60;96.90
67750;DHT22;54550;48.838;8.828;2023-08-21T08:31:20;33.60;97.60
67750;DHT22;54550;48.838;8.828;2023-08-21T08:33:47;33.80;96.10
67750;DHT22;54550;48.838;8.828;2023-08-21T08:36:13;33.70;96.20
67750;DHT22;54550;48.838;8.828;2023-08-21T08:38:39;33.90;96.60
67750;DHT22;54550;48.838;8.828;2023-08-21T08:41:13;33.80;96.50
67750;DHT22;54550;48.838;8.828;2023-08-21T08:43:40;33.80;95.30
67750;DHT22;54550;48.838;8.828;2023-08-21T08:46:07;34.40;94.70
67750;DHT22;54550;48.838;8.828;2023-08-21T08:48:37;34.60;94.40
67750;DHT22;54550;48.838;8.828;2023-08-21T08:51:03;34.80;94.20
67750;DHT22;54550;48.838;8.828;2023-08-21T08:53:31;34.40;94.80
67750;DHT22;54550;48.838;8.828;2023-08-21T08:55:58;34.70;93.90
67750;DHT22;54550;48.838;8.828;2023-08-21T08:58:24;34.70;94.70
67750;DHT22;54550;48.838;8.828;2023-08-21T09:00:49;35.00;94.20
67750;DHT22;54550;48.838;8.828;2023-08-21T09:03:15;34.80;93.30
67750;DHT22;54550;48.838;8.828;2023-08-21T09:05:42;35.20;94.00
67750;DHT22;54550;48.838;8.828;2023-08-21T09:08:11;35.20;93.90
67750;DHT22;54550;48.838;8.828;2023-08-21T09:10:38;35.30;93.40
67750;DHT22;54550;48.838;8.828;2023-08-21T09:13:15;35.40;92.20
67750;DHT22;54550;48.838;8.828;2023-08-21T09:15:46;35.40;92.10
67750;DHT22;54550;48.838;8.828;2023-08-21T09:18:13;35.40;91.80
67750;DHT22;54550;48.838;8.828;2023-08-21T09:20:40;34.90;92.00
67750;DHT22;54550;48.838;8.828;2023-08-21T09:23:07;34.80;92.30
67750;DHT22;54550;48.838;8.828;2023-08-21T09:25:38;34.90;92.50
67750;DHT22;54550;48.838;8.828;2023-08-21T09:28:08;34.90;92.60
67750;DHT22;54550;48.838;8.828;2023-08-21T09:31:03;35.10;92.10
67750;DHT22;54550;48.838;8.828;2023-08-21T09:33:29;35.10;92.00
67750;DHT22;54550;48.838;8.828;2023-08-21T09:35:55;34.70;92.50
67750;DHT22;54550;48.838;8.828;2023-08-21T09:38:21;35.00;91.90
67750;DHT22;54550;48.838;8.828;2023-08-21T09:40:54;34.80;91.40
67750;DHT22;54550;48.838;8.828;2023-08-21T09:43:24;34.70;91.70
67750;DHT22;54550;48.838;8.828;2023-08-21T09:45:50;34.90;92.00
67750;DHT22;54550;48.838;8.828;2023-08-21T09:48:25;35.00;91.80
67750;DHT22;54550;48.838;8.828;2023-08-21T09:50:54;35.10;91.60
67750;DHT22;54550;48.838;8.828;2023-08-21T09:53:23;35.30;91.70
67750;DHT22;54550;48.838;8.828;2023-08-21T09:55:55;35.40;91.40
67750;DHT22;54550;48.838;8.828;2023-08-21T09:58:21;35.30;91.90
67750;DHT22;54550;48.838;8.828;2023-08-21T10:00:49;35.00;91.90
67750;DHT22;54550;48.838;8.828;2023-08-21T10:03:19;34.60;91.70
67750;DHT22;54550;48.838;8.828;2023-08-21T10:05:47;35.10;92.00
67750;DHT22;54550;48.838;8.828;2023-08-21T10:08:15;35.50;91.30
67750;DHT22;54550;48.838;8.828;2023-08-21T10:10:41;35.50;91.00
67750;DHT22;54550;48.838;8.828;2023-08-21T10:13:08;35.70;91.10
67750;DHT22;54550;48.838;8.828;2023-08-21T10:15:34;35.40;90.80
67750;DHT22;54550;48.838;8.828;2023-08-21T10:18:31;35.70;90.40
67750;DHT22;54550;48.838;8.828;2023-08-21T10:21:13;35.80;90.50
67750;DHT22;54550;48.838;8.828;2023-08-21T10:23:40;35.90;91.00
67750;DHT22;54550;48.838;8.828;2023-08-21T10:26:07;35.80;90.20
67750;DHT22;54550;48.838;8.828;2023-08-21T10:28:59;35.90;90.80
67750;DHT22;54550;48.838;8.828;2023-08-21T10:33:56;35.80;90.90
67750;DHT22;54550;48.838;8.828;2023-08-21T10:44:34;35.40;91.00
67750;DHT22;54550;48.838;8.828;2023-08-21T10:49:40;34.80;91.60
67750;DHT22;54550;48.838;8.828;2023-08-21T10:52:08;33.80;92.90
67750;DHT22;54550;48.838;8.828;2023-08-21T10:54:53;33.20;93.70
67750;DHT22;54550;48.838;8.828;2023-08-21T10:57:19;32.90;93.90
67750;DHT22;54550;48.838;8.828;2023-08-21T10:59:53;33.50;93.80
67750;DHT22;54550;48.838;8.828;2023-08-21T11:02:19;34.60;93.00
67750;DHT22;54550;48.838;8.828;2023-08-21T11:04:44;35.10;92.00
67750;DHT22;54550;48.838;8.828;2023-08-21T11:07:10;35.90;91.40
67750;DHT22;54550;48.838;8.828;2023-08-21T11:09:36;36.60;91.00
67750;DHT22;54550;48.838;8.828;2023-08-21T11:12:10;37.30;90.40
67750;DHT22;54550;48.838;8.828;2023-08-21T11:14:38;37.50;89.80
67750;DHT22;54550;48.838;8.828;2023-08-21T11:17:04;37.30;89.90
67750;DHT22;54550;48.838;8.828;2023-08-21T11:19:33;37.60;87.40
67750;DHT22;54550;48.838;8.828;2023-08-21T11:22:00;37.60;88.40
67750;DHT22;54550;48.838;8.828;2023-08-21T11:27:04;36.60;89.10
67750;DHT22;54550;48.838;8.828;2023-08-21T11:29:36;35.50;90.40
67750;DHT22;54550;48.838;8.828;2023-08-21T11:32:02;34.60;91.70
67750;DHT22;54550;48.838;8.828;2023-08-21T11:34:28;34.00;91.70
67750;DHT22;54550;48.838;8.828;2023-08-21T11:36:54;33.40;92.90
67750;DHT22;54550;48.838;8.828;2023-08-21T11:39:20;33.80;93.50
67750;DHT22;54550;48.838;8.828;2023-08-21T11:41:57;34.40;92.60
67750;DHT22;54550;48.838;8.828;2023-08-21T11:44:23;35.40;91.30
67750;DHT22;54550;48.838;8.828;2023-08-21T11:46:52;36.10;90.90
67750;DHT22;54550;48.838;8.828;2023-08-21T11:49:20;36.30;90.40
67750;DHT22;54550;48.838;8.828;2023-08-21T11:51:48;36.80;88.70
67750;DHT22;54550;48.838;8.828;2023-08-21T11:54:13;37.00;87.60
67750;DHT22;54550;48.838;8.828;2023-08-21T11:56:39;37.00;90.00
67750;DHT22;54550;48.838;8.828;2023-08-21T11:59:08;36.40;88.20
67750;DHT22;54550;48.838;8.828;2023-08-21T12:01:33;37.10;89.50
67750;DHT22;54550;48.838;8.828;2023-08-21T12:04:14;36.60;88.90
67750;DHT22;54550;48.838;8.828;2023-08-21T12:06:44;36.60;90.00
67750;DHT22;54550;48.838;8.828;2023-08-21T12:09:09;36.80;88.90
67750;DHT22;54550;48.838;8.828;2023-08-21T12:11:35;36.60;87.00
67750;DHT22;54550;48.838;8.828;2023-08-21T12:14:03;36.70;86.70
67750;DHT22;54550;48.838;8.828;2023-08-21T12:16:29;36.80;88.30
67750;DHT22;54550;48.838;8.828;2023-08-21T12:18:54;37.70;89.10
67750;DHT22;54550;48.838;8.828;2023-08-21T12:21:23;37.90;88.10
67750;DHT22;54550;48.838;8.828;2023-08-21T12:23:48;38.60;87.90
67750;DHT22;54550;48.838;8.828;2023-08-21T12:26:14;38.80;84.50
67750;DHT22;54550;48.838;8.828;2023-08-21T12:28:46;39.20;84.10
67750;DHT22;54550;48.838;8.828;2023-08-21T12:31:11;38.90;84.70
67750;DHT22;54550;48.838;8.828;2023-08-21T12:33:37;39.30;82.70
67750;DHT22;54550;48.838;8.828;2023-08-21T12:36:03;39.50;83.20
67750;DHT22;54550;48.838;8.828;2023-08-21T12:38:28;39.70;83.00
67750;DHT22;54550;48.838;8.828;2023-08-21T12:40:54;39.70;82.60
67750;DHT22;54550;48.838;8.828;2023-08-21T12:43:21;39.80;81.10
67750;DHT22;54550;48.838;8.828;2023-08-21T12:45:47;40.10;80.50
67750;DHT22;54550;48.838;8.828;2023-08-21T12:48:12;39.90;80.80
67750;DHT22;54550;48.838;8.828;2023-08-21T12:50:38;39.70;82.10
67750;DHT22;54550;48.838;8.828;2023-08-21T12:53:04;39.30;82.10
67750;DHT22;54550;48.838;8.828;2023-08-21T12:55:29;38.50;85.70
67750;DHT22;54550;48.838;8.828;2023-08-21T12:57:56;37.60;84.20
67750;DHT22;54550;48.838;8.828;2023-08-21T13:00:22;37.80;84.80
67750;DHT22;54550;48.838;8.828;2023-08-21T13:02:47;38.20;83.10
67750;DHT22;54550;48.838;8.828;2023-08-21T13:05:13;38.30;83.80
67750;DHT22;54550;48.838;8.828;2023-08-21T13:07:38;38.50;82.60
67750;DHT22;54550;48.838;8.828;2023-08-21T13:10:04;37.80;83.20
67750;DHT22;54550;48.838;8.828;2023-08-21T13:12:30;37.30;84.10
67750;DHT22;54550;48.838;8.828;2023-08-21T13:14:55;37.40;84.60
67750;DHT22;54550;48.838;8.828;2023-08-21T13:17:21;37.60;84.40
67750;DHT22;54550;48.838;8.828;2023-08-21T13:19:46;38.40;82.20
67750;DHT22;54550;48.838;8.828;2023-08-21T13:22:12;39.00;81.90
67750;DHT22;54550;48.838;8.828;2023-08-21T13:24:38;38.60;81.50
67750;DHT22;54550;48.838;8.828;2023-08-21T13:27:03;38.30;83.60
67750;DHT22;54550;48.838;8.828;2023-08-21T13:29:29;38.70;82.40
67750;DHT22;54550;48.838;8.828;2023-08-21T13:31:54;38.70;83.10
67750;DHT22;54550;48.838;8.828;2023-08-21T13:34:20;37.70;83.40
67750;DHT22;54550;48.838;8.828;2023-08-21T13:36:45;37.00;85.10
67750;DHT22;54550;48.838;8.828;2023-08-21T13:39:11;36.70;85.30
67750;DHT22;54550;48.838;8.828;2023-08-21T13:41:40;37.00;85.40
67750;DHT22;54550;48.838;8.828;2023-08-21T13:44:06;37.50;85.00
67750;DHT22;54550;48.838;8.828;2023-08-21T13:46:33;37.70;85.10
67750;DHT22;54550;48.838;8.828;2023-08-21T13:48:59;38.20;84.10
67750;DHT22;54550;48.838;8.828;2023-08-21T13:51:25;38.60;82.20
67750;DHT22;54550;48.838;8.828;2023-08-21T13:53:50;38.60;81.90
67750;DHT22;54550;48.838;8.828;2023-08-21T13:56:16;38.30;81.80
67750;DHT22;54550;48.838;8.828;2023-08-21T13:58:42;38.60;82.50
67750;DHT22;54550;48.838;8.828;2023-08-21T14:01:07;38.60;84.50
67750;DHT22;54550;48.838;8.828;2023-08-21T14:03:33;38.40;82.30
67750;DHT22;54550;48.838;8.828;2023-08-21T14:05:59;37.70;83.40
67750;DHT22;54550;48.838;8.828;2023-08-21T14:08:25;37.50;84.90
67750;DHT22;54550;48.838;8.828;2023-08-21T14:10:51;37.70;84.00
67750;DHT22;54550;48.838;8.828;2023-08-21T14:13:16;38.30;82.60
67750;DHT22;54550;48.838;8.828;2023-08-21T14:15:42;39.00;81.40
67750;DHT22;54550;48.838;8.828;2023-08-21T14:18:07;38.70;81.80
67750;DHT22;54550;48.838;8.828;2023-08-21T14:20:33;39.00;83.00
67750;DHT22;54550;48.838;8.828;2023-08-21T14:22:58;39.30;79.20
67750;DHT22;54550;48.838;8.828;2023-08-21T14:25:24;39.40;80.40
67750;DHT22;54550;48.838;8.828;2023-08-21T14:27:50;39.70;79.80
67750;DHT22;54550;48.838;8.828;2023-08-21T14:30:15;39.50;79.70
67750;DHT22;54550;48.838;8.828;2023-08-21T14:32:41;38.00;82.30
67750;DHT22;54550;48.838;8.828;2023-08-21T14:35:08;36.70;84.90
67750;DHT22;54550;48.838;8.828;2023-08-21T14:37:34;36.70;85.90
67750;DHT22;54550;48.838;8.828;2023-08-21T14:40:00;37.40;85.10
67750;DHT22;54550;48.838;8.828;2023-08-21T14:42:25;37.90;84.10
67750;DHT22;54550;48.838;8.828;2023-08-21T14:44:51;37.90;83.20
67750;DHT22;54550;48.838;8.828;2023-08-21T14:47:16;38.10;83.40
67750;DHT22;54550;48.838;8.828;2023-08-21T14:49:42;37.90;84.80
67750;DHT22;54550;48.838;8.828;2023-08-21T14:52:07;37.40;84.80
67750;DHT22;54550;48.838;8.828;2023-08-21T14:54:33;37.20;85.30
67750;DHT22;54550;48.838;8.828;2023-08-21T14:57:00;37.60;84.80
67750;DHT22;54550;48.838;8.828;2023-08-21T14:59:26;38.30;82.40
67750;DHT22;54550;48.838;8.828;2023-08-21T15:01:51;38.30;82.60
67750;DHT22;54550;48.838;8.828;2023-08-21T15:04:17;38.70;81.50
67750;DHT22;54550;48.838;8.828;2023-08-21T15:06:43;38.90;81.40
67750;DHT22;54550;48.838;8.828;2023-08-21T15:09:08;39.00;81.60
67750;DHT22;54550;48.838;8.828;2023-08-21T15:11:34;38.30;82.20
67750;DHT22;54550;48.838;8.828;2023-08-21T15:14:01;37.40;84.40
67750;DHT22;54550;48.838;8.828;2023-08-21T15:16:28;37.10;85.30
67750;DHT22;54550;48.838;8.828;2023-08-21T15:18:53;36.50;85.50
67750;DHT22;54550;48.838;8.828;2023-08-21T15:21:19;35.10;87.50
67750;DHT22;54550;48.838;8.828;2023-08-21T15:23:45;33.80;90.40
67750;DHT22;54550;48.838;8.828;2023-08-21T15:26:11;33.40;92.20
67750;DHT22;54550;48.838;8.828;2023-08-21T15:28:36;34.30;90.80
67750;DHT22;54550;48.838;8.828;2023-08-21T15:31:02;35.00;90.20
67750;DHT22;54550;48.838;8.828;2023-08-21T15:33:28;35.90;88.50
67750;DHT22;54550;48.838;8.828;2023-08-21T15:35:54;36.70;87.90
67750;DHT22;54550;48.838;8.828;2023-08-21T15:38:19;37.10;85.50
67750;DHT22;54550;48.838;8.828;2023-08-21T15:40:45;37.10;84.40
67750;DHT22;54550;48.838;8.828;2023-08-21T15:43:11;37.40;86.00
67750;DHT22;54550;48.838;8.828;2023-08-21T15:45:36;37.70;84.40